sensor_id;sensor_type;location;lat;lon;timestamp;P1;durP1;ratioP1;P2;durP2;ratioP2
39654;SDS011;25336;59.944;11.010;2024-02-26T00:01:36;21.70;;;12.45;;
39654;SDS011;25336;59.944;11.010;2024-02-26T00:04:02;23.17;;;11.60;;
39654;SDS011;25336;59.944;11.010;2024-02-26T00:06:28;17.23;;;11.75;;
39654;SDS011;25336;59.944;11.010;2024-02-26T00:08:55;17.90;;;11.77;;
39654;SDS011;25336;59.944;11.010;2024-02-26T00:11:20;18.08;;;12.07;;
39654;SDS011;25336;59.944;11.010;2024-02-26T00:13:46;25.17;;;12.35;;
39654;SDS011;25336;59.944;11.010;2024-02-26T00:16:12;16.75;;;12.82;;
39654;SDS011;25336;59.944;11.010;2024-02-26T00:18:38;28.08;;;13.40;;
39654;SDS011;25336;59.944;11.010;2024-02-26T00:21:03;21.75;;;12.55;;
39654;SDS011;25336;59.944;11.010;2024-02-26T00:23:29;24.67;;;13.77;;
39654;SDS011;25336;59.944;11.010;2024-02-26T00:25:55;33.08;;;14.68;;
39654;SDS011;25336;59.944;11.010;2024-02-26T00:28:21;39.20;;;14.18;;
39654;SDS011;25336;59.944;11.010;2024-02-26T00:30:47;44.10;;;14.65;;
39654;SDS011;25336;59.944;11.010;2024-02-26T00:33:14;47.70;;;14.15;;
39654;SDS011;25336;59.944;11.010;2024-02-26T00:35:41;27.77;;;12.63;;
39654;SDS011;25336;59.944;11.010;2024-02-26T00:38:07;53.13;;;14.68;;
39654;SDS011;25336;59.944;11.010;2024-02-26T00:40:33;46.30;;;11.73;;
39654;SDS011;25336;59.944;11.010;2024-02-26T00:42:59;53.70;;;12.60;;
39654;SDS011;25336;59.944;11.010;2024-02-26T00:45:25;106.10;;;12.80;;
39654;SDS011;25336;59.944;11.010;2024-02-26T00:47:51;53.28;;;14.25;;
39654;SDS011;25336;59.944;11.010;2024-02-26T00:50:16;39.38;;;13.13;;
39654;SDS011;25336;59.944;11.010;2024-02-26T00:52:42;59.38;;;15.38;;
39654;SDS011;25336;59.944;11.010;2024-02-26T00:55:08;37.58;;;13.93;;
39654;SDS011;25336;59.944;11.010;2024-02-26T00:57:34;42.80;;;13.60;;
39654;SDS011;25336;59.944;11.010;2024-02-26T01:00:00;57.50;;;12.57;;
39654;SDS011;25336;59.944;11.010;2024-02-26T01:02:26;71.97;;;13.90;;
39654;SDS011;25336;59.944;11.010;2024-02-26T01:04:52;66.97;;;14.82;;
39654;SDS011;25336;59.944;11.010;2024-02-26T01:07:17;48.45;;;14.15;;
39654;SDS011;25336;59.944;11.010;2024-02-26T01:09:44;23.52;;;11.65;;
39654;SDS011;25336;59.944;11.010;2024-02-26T01:12:09;50.00;;;12.73;;
39654;SDS011;25336;59.944;11.010;2024-02-26T01:14:35;41.78;;;12.63;;
39654;SDS011;25336;59.944;11.010;2024-02-26T01:17:01;74.90;;;15.25;;
39654;SDS011;25336;59.944;11.010;2024-02-26T01:19:27;43.45;;;13.68;;
39654;SDS011;25336;59.944;11.010;2024-02-26T01:21:53;57.22;;;13.90;;
39654;SDS011;25336;59.944;11.010;2024-02-26T01:24:19;65.60;;;14.57;;
39654;SDS011;25336;59.944;11.010;2024-02-26T01:26:44;38.92;;;13.18;;
39654;SDS011;25336;59.944;11.010;2024-02-26T01:29:10;52.30;;;12.05;;
39654;SDS011;25336;59.944;11.010;2024-02-26T01:31:36;49.03;;;11.93;;
39654;SDS011;25336;59.944;11.010;2024-02-26T01:34:01;65.63;;;15.57;;
39654;SDS011;25336;59.944;11.010;2024-02-26T01:36:27;62.83;;;12.63;;
39654;SDS011;25336;59.944;11.010;2024-02-26T01:38:53;84.60;;;14.70;;
39654;SDS011;25336;59.944;11.010;2024-02-26T01:41:19;50.45;;;12.05;;
39654;SDS011;25336;59.944;11.010;2024-02-26T01:43:45;42.13;;;12.30;;
39654;SDS011;25336;59.944;11.010;2024-02-26T01:46:11;45.55;;;12.93;;
39654;SDS011;25336;59.944;11.010;2024-02-26T01:48:43;39.58;;;11.52;;
39654;SDS011;25336;59.944;11.010;2024-02-26T01:51:10;58.10;;;12.38;;
39654;SDS011;25336;59.944;11.010;2024-02-26T01:53:39;75.15;;;14.32;;
39654;SDS011;25336;59.944;11.010;2024-02-26T01:56:06;72.22;;;13.20;;
39654;SDS011;25336;59.944;11.010;2024-02-26T01:58:33;78.50;;;16.15;;
39654;SDS011;25336;59.944;11.010;2024-02-26T02:01:00;70.78;;;13.77;;
39654;SDS011;25336;59.944;11.010;2024-02-26T02:03:27;54.63;;;12.38;;
39654;SDS011;25336;59.944;11.010;2024-02-26T02:05:54;64.05;;;14.27;;
39654;SDS011;25336;59.944;11.010;2024-02-26T02:08:19;56.28;;;12.82;;
39654;SDS011;25336;59.944;11.010;2024-02-26T02:10:46;58.47;;;13.38;;
39654;SDS011;25336;59.944;11.010;2024-02-26T02:13:14;85.40;;;13.57;;
39654;SDS011;25336;59.944;11.010;2024-02-26T02:15:39;59.42;;;13.38;;
39654;SDS011;25336;59.944;11.010;2024-02-26T02:18:05;65.25;;;14.05;;
39654;SDS011;25336;59.944;11.010;2024-02-26T02:20:32;62.58;;;12.10;;
39654;SDS011;25336;59.944;11.010;2024-02-26T02:22:58;63.92;;;13.05;;
39654;SDS011;25336;59.944;11.010;2024-02-26T02:25:24;87.72;;;14.05;;
39654;SDS011;25336;59.944;11.010;2024-02-26T02:27:50;136.88;;;16.65;;
39654;SDS011;25336;59.944;11.010;2024-02-26T02:30:18;71.35;;;12.55;;
39654;SDS011;25336;59.944;11.010;2024-02-26T02:32:46;63.75;;;13.75;;
39654;SDS011;25336;59.944;11.010;2024-02-26T02:35:12;66.22;;;14.05;;
39654;SDS011;25336;59.944;11.010;2024-02-26T02:37:37;50.85;;;11.52;;
39654;SDS011;25336;59.944;11.010;2024-02-26T02:40:03;34.15;;;11.30;;
39654;SDS011;25336;59.944;11.010;2024-02-26T02:42:30;41.30;;;11.77;;
39654;SDS011;25336;59.944;11.010;2024-02-26T02:44:56;44.35;;;10.77;;
39654;SDS011;25336;59.944;11.010;2024-02-26T02:47:22;32.63;;;9.85;;
39654;SDS011;25336;59.944;11.010;2024-02-26T02:49:47;33.10;;;9.18;;
39654;SDS011;25336;59.944;11.010;2024-02-26T02:52:13;21.85;;;9.85;;
39654;SDS011;25336;59.944;11.010;2024-02-26T02:54:39;44.78;;;10.30;;
39654;SDS011;25336;59.944;11.010;2024-02-26T02:57:06;48.63;;;11.05;;
39654;SDS011;25336;59.944;11.010;2024-02-26T02:59:35;56.30;;;10.60;;
39654;SDS011;25336;59.944;11.010;2024-02-26T03:02:02;49.47;;;11.77;;
39654;SDS011;25336;59.944;11.010;2024-02-26T03:04:31;136.15;;;14.77;;
39654;SDS011;25336;59.944;11.010;2024-02-26T03:06:57;244.45;;;19.77;;
39654;SDS011;25336;59.944;11.010;2024-02-26T03:09:23;328.00;;;22.40;;
39654;SDS011;25336;59.944;11.010;2024-02-26T03:11:49;306.63;;;19.48;;
39654;SDS011;25336;59.944;11.010;2024-02-26T03:14:15;116.88;;;13.15;;
39654;SDS011;25336;59.944;11.010;2024-02-26T03:16:40;204.02;;;17.15;;
39654;SDS011;25336;59.944;11.010;2024-02-26T03:19:06;219.68;;;18.02;;
39654;SDS011;25336;59.944;11.010;2024-02-26T03:21:32;143.98;;;14.57;;
39654;SDS011;25336;59.944;11.010;2024-02-26T03:26:28;165.80;;;14.10;;
39654;SDS011;25336;59.944;11.010;2024-02-26T03:28:53;119.38;;;12.15;;
39654;SDS011;25336;59.944;11.010;2024-02-26T03:31:19;144.35;;;13.75;;
39654;SDS011;25336;59.944;11.010;2024-02-26T03:33:46;119.13;;;14.73;;
39654;SDS011;25336;59.944;11.010;2024-02-26T03:36:12;47.08;;;11.10;;
39654;SDS011;25336;59.944;11.010;2024-02-26T03:38:38;70.40;;;11.13;;
39654;SDS011;25336;59.944;11.010;2024-02-26T03:41:03;39.83;;;11.52;;
39654;SDS011;25336;59.944;11.010;2024-02-26T03:43:29;31.10;;;11.30;;
39654;SDS011;25336;59.944;11.010;2024-02-26T03:45:55;20.25;;;10.38;;
39654;SDS011;25336;59.944;11.010;2024-02-26T03:48:21;23.17;;;11.15;;
39654;SDS011;25336;59.944;11.010;2024-02-26T03:50:46;23.42;;;10.90;;
39654;SDS011;25336;59.944;11.010;2024-02-26T03:53:12;14.95;;;10.20;;
39654;SDS011;25336;59.944;11.010;2024-02-26T03:55:38;18.15;;;10.15;;
39654;SDS011;25336;59.944;11.010;2024-02-26T03:58:03;17.52;;;10.23;;
39654;SDS011;25336;59.944;11.010;2024-02-26T04:00:29;18.98;;;11.38;;
39654;SDS011;25336;59.944;11.010;2024-02-26T04:02:55;17.95;;;10.32;;
39654;SDS011;25336;59.944;11.010;2024-02-26T04:05:21;20.20;;;10.70;;
39654;SDS011;25336;59.944;11.010;2024-02-26T04:07:47;18.75;;;11.18;;
39654;SDS011;25336;59.944;11.010;2024-02-26T04:10:12;19.80;;;11.02;;
39654;SDS011;25336;59.944;11.010;2024-02-26T04:12:39;19.20;;;11.18;;
39654;SDS011;25336;59.944;11.010;2024-02-26T04:15:06;16.15;;;10.02;;
39654;SDS011;25336;59.944;11.010;2024-02-26T04:17:33;19.30;;;11.45;;
39654;SDS011;25336;59.944;11.010;2024-02-26T04:19:58;15.50;;;10.25;;
39654;SDS011;25336;59.944;11.010;2024-02-26T04:22:24;17.38;;;11.48;;
39654;SDS011;25336;59.944;11.010;2024-02-26T04:24:50;17.33;;;11.73;;
39654;SDS011;25336;59.944;11.010;2024-02-26T04:27:15;19.02;;;11.57;;
39654;SDS011;25336;59.944;11.010;2024-02-26T04:29:41;18.55;;;11.57;;
39654;SDS011;25336;59.944;11.010;2024-02-26T04:32:07;18.23;;;11.80;;
39654;SDS011;25336;59.944;11.010;2024-02-26T04:34:32;15.20;;;10.35;;
39654;SDS011;25336;59.944;11.010;2024-02-26T04:36:58;17.08;;;11.15;;
39654;SDS011;25336;59.944;11.010;2024-02-26T04:39:24;17.58;;;11.45;;
39654;SDS011;25336;59.944;11.010;2024-02-26T04:41:49;16.88;;;11.13;;
39654;SDS011;25336;59.944;11.010;2024-02-26T04:44:17;15.00;;;10.50;;
39654;SDS011;25336;59.944;11.010;2024-02-26T04:46:43;14.35;;;10.57;;
39654;SDS011;25336;59.944;11.010;2024-02-26T04:49:09;14.50;;;10.75;;
39654;SDS011;25336;59.944;11.010;2024-02-26T04:51:35;14.85;;;10.68;;
39654;SDS011;25336;59.944;11.010;2024-02-26T04:54:00;14.38;;;10.30;;
39654;SDS011;25336;59.944;11.010;2024-02-26T04:56:30;15.25;;;10.77;;
39654;SDS011;25336;59.944;11.010;2024-02-26T04:58:55;15.27;;;10.20;;
39654;SDS011;25336;59.944;11.010;2024-02-26T05:01:21;17.58;;;10.57;;
39654;SDS011;25336;59.944;11.010;2024-02-26T05:03:47;13.82;;;9.38;;
39654;SDS011;25336;59.944;11.010;2024-02-26T05:06:14;14.02;;;9.32;;
39654;SDS011;25336;59.944;11.010;2024-02-26T05:08:40;14.60;;;9.80;;
39654;SDS011;25336;59.944;11.010;2024-02-26T05:11:05;16.77;;;10.52;;
39654;SDS011;25336;59.944;11.010;2024-02-26T05:13:31;16.65;;;10.60;;
39654;SDS011;25336;59.944;11.010;2024-02-26T05:15:57;13.25;;;9.63;;
39654;SDS011;25336;59.944;11.010;2024-02-26T05:18:23;11.80;;;8.55;;
39654;SDS011;25336;59.944;11.010;2024-02-26T05:20:49;12.02;;;8.65;;
39654;SDS011;25336;59.944;11.010;2024-02-26T05:23:14;10.43;;;7.50;;
39654;SDS011;25336;59.944;11.010;2024-02-26T05:25:40;11.20;;;7.45;;
39654;SDS011;25336;59.944;11.010;2024-02-26T05:28:06;9.05;;;7.13;;
39654;SDS011;25336;59.944;11.010;2024-02-26T05:30:32;8.80;;;6.50;;
39654;SDS011;25336;59.944;11.010;2024-02-26T05:32:58;8.88;;;6.10;;
39654;SDS011;25336;59.944;11.010;2024-02-26T05:35:24;8.98;;;6.15;;
39654;SDS011;25336;59.944;11.010;2024-02-26T05:37:53;8.90;;;6.47;;
39654;SDS011;25336;59.944;11.010;2024-02-26T05:40:19;5.90;;;5.28;;
39654;SDS011;25336;59.944;11.010;2024-02-26T05:42:44;7.50;;;6.10;;
39654;SDS011;25336;59.944;11.010;2024-02-26T05:45:10;5.70;;;4.72;;
39654;SDS011;25336;59.944;11.010;2024-02-26T05:47:36;6.38;;;5.22;;
39654;SDS011;25336;59.944;11.010;2024-02-26T05:50:07;6.75;;;5.38;;
39654;SDS011;25336;59.944;11.010;2024-02-26T05:52:37;6.65;;;5.18;;
39654;SDS011;25336;59.944;11.010;2024-02-26T05:55:06;8.20;;;5.82;;
39654;SDS011;25336;59.944;11.010;2024-02-26T05:57:35;5.97;;;5.20;;
39654;SDS011;25336;59.944;11.010;2024-02-26T06:00:01;6.95;;;4.88;;
39654;SDS011;25336;59.944;11.010;2024-02-26T06:02:30;5.93;;;4.80;;
39654;SDS011;25336;59.944;11.010;2024-02-26T06:04:56;4.82;;;4.32;;
39654;SDS011;25336;59.944;11.010;2024-02-26T06:07:22;7.68;;;5.10;;
39654;SDS011;25336;59.944;11.010;2024-02-26T06:09:48;5.70;;;4.47;;
39654;SDS011;25336;59.944;11.010;2024-02-26T06:12:14;3.38;;;3.05;;
39654;SDS011;25336;59.944;11.010;2024-02-26T06:14:44;2.78;;;2.47;;
39654;SDS011;25336;59.944;11.010;2024-02-26T06:17:10;2.30;;;1.98;;
39654;SDS011;25336;59.944;11.010;2024-02-26T06:19:35;2.40;;;2.20;;
39654;SDS011;25336;59.944;11.010;2024-02-26T06:22:01;2.10;;;1.73;;
39654;SDS011;25336;59.944;11.010;2024-02-26T06:24:27;2.53;;;1.98;;
39654;SDS011;25336;59.944;11.010;2024-02-26T06:26:53;1.70;;;1.60;;
39654;SDS011;25336;59.944;11.010;2024-02-26T06:29:18;2.22;;;1.92;;
39654;SDS011;25336;59.944;11.010;2024-02-26T06:31:44;1.90;;;1.52;;
39654;SDS011;25336;59.944;11.010;2024-02-26T06:34:10;1.90;;;1.73;;
39654;SDS011;25336;59.944;11.010;2024-02-26T06:36:36;1.70;;;1.60;;
39654;SDS011;25336;59.944;11.010;2024-02-26T06:39:02;2.03;;;1.58;;
39654;SDS011;25336;59.944;11.010;2024-02-26T06:41:28;1.48;;;1.38;;
39654;SDS011;25336;59.944;11.010;2024-02-26T06:43:55;1.27;;;1.17;;
39654;SDS011;25336;59.944;11.010;2024-02-26T06:46:21;1.30;;;1.20;;
39654;SDS011;25336;59.944;11.010;2024-02-26T06:48:47;1.13;;;1.02;;
39654;SDS011;25336;59.944;11.010;2024-02-26T06:51:13;1.23;;;1.13;;
39654;SDS011;25336;59.944;11.010;2024-02-26T06:53:39;1.10;;;1.10;;
39654;SDS011;25336;59.944;11.010;2024-02-26T06:56:05;1.30;;;1.17;;
39654;SDS011;25336;59.944;11.010;2024-02-26T06:58:31;1.17;;;1.10;;
39654;SDS011;25336;59.944;11.010;2024-02-26T07:00:57;1.40;;;1.30;;
39654;SDS011;25336;59.944;11.010;2024-02-26T07:03:22;1.27;;;1.20;;
39654;SDS011;25336;59.944;11.010;2024-02-26T07:05:49;1.40;;;1.30;;
39654;SDS011;25336;59.944;11.010;2024-02-26T07:08:15;1.23;;;1.13;;
39654;SDS011;25336;59.944;11.010;2024-02-26T07:10:42;1.10;;;1.00;;
39654;SDS011;25336;59.944;11.010;2024-02-26T07:13:09;1.45;;;1.20;;
39654;SDS011;25336;59.944;11.010;2024-02-26T07:15:35;1.35;;;1.30;;
39654;SDS011;25336;59.944;11.010;2024-02-26T07:18:01;2.50;;;1.42;;
39654;SDS011;25336;59.944;11.010;2024-02-26T07:20:29;1.13;;;1.10;;
39654;SDS011;25336;59.944;11.010;2024-02-26T07:22:56;1.40;;;1.30;;
39654;SDS011;25336;59.944;11.010;2024-02-26T07:25:21;1.30;;;1.13;;
39654;SDS011;25336;59.944;11.010;2024-02-26T07:27:48;1.73;;;1.30;;
39654;SDS011;25336;59.944;11.010;2024-02-26T07:30:14;1.83;;;1.20;;
39654;SDS011;25336;59.944;11.010;2024-02-26T07:32:40;1.15;;;1.15;;
39654;SDS011;25336;59.944;11.010;2024-02-26T07:35:05;1.02;;;1.02;;
39654;SDS011;25336;59.944;11.010;2024-02-26T07:37:31;1.30;;;1.20;;
39654;SDS011;25336;59.944;11.010;2024-02-26T07:39:57;1.00;;;1.00;;
39654;SDS011;25336;59.944;11.010;2024-02-26T07:42:23;1.05;;;0.98;;
39654;SDS011;25336;59.944;11.010;2024-02-26T07:44:48;1.17;;;1.15;;
39654;SDS011;25336;59.944;11.010;2024-02-26T07:47:14;0.90;;;0.90;;
39654;SDS011;25336;59.944;11.010;2024-02-26T07:49:40;0.82;;;0.82;;
39654;SDS011;25336;59.944;11.010;2024-02-26T07:52:06;0.93;;;0.93;;
39654;SDS011;25336;59.944;11.010;2024-02-26T07:54:31;0.75;;;0.75;;
39654;SDS011;25336;59.944;11.010;2024-02-26T07:56:57;1.27;;;1.17;;
39654;SDS011;25336;59.944;11.010;2024-02-26T07:59:23;1.08;;;0.93;;
39654;SDS011;25336;59.944;11.010;2024-02-26T08:01:52;1.70;;;1.10;;
39654;SDS011;25336;59.944;11.010;2024-02-26T08:04:18;1.45;;;1.05;;
39654;SDS011;25336;59.944;11.010;2024-02-26T08:06:43;1.20;;;1.10;;
39654;SDS011;25336;59.944;11.010;2024-02-26T08:09:09;1.05;;;1.00;;
39654;SDS011;25336;59.944;11.010;2024-02-26T08:11:35;1.75;;;1.00;;
39654;SDS011;25336;59.944;11.010;2024-02-26T08:14:01;0.73;;;0.73;;
39654;SDS011;25336;59.944;11.010;2024-02-26T08:16:26;1.70;;;1.02;;
39654;SDS011;25336;59.944;11.010;2024-02-26T08:18:52;1.65;;;1.05;;
39654;SDS011;25336;59.944;11.010;2024-02-26T08:21:18;1.20;;;1.10;;
39654;SDS011;25336;59.944;11.010;2024-02-26T08:23:44;1.10;;;1.10;;
39654;SDS011;25336;59.944;11.010;2024-02-26T08:26:09;1.15;;;1.15;;
39654;SDS011;25336;59.944;11.010;2024-02-26T08:28:39;1.20;;;1.10;;
39654;SDS011;25336;59.944;11.010;2024-02-26T08:31:05;1.23;;;1.13;;
39654;SDS011;25336;59.944;11.010;2024-02-26T08:33:30;1.33;;;1.13;;
39654;SDS011;25336;59.944;11.010;2024-02-26T08:35:56;1.95;;;1.33;;
39654;SDS011;25336;59.944;11.010;2024-02-26T08:38:23;1.52;;;1.42;;
39654;SDS011;25336;59.944;11.010;2024-02-26T08:40:49;1.02;;;0.98;;
39654;SDS011;25336;59.944;11.010;2024-02-26T08:43:14;1.10;;;1.00;;
39654;SDS011;25336;59.944;11.010;2024-02-26T08:45:40;2.03;;;1.73;;
39654;SDS011;25336;59.944;11.010;2024-02-26T08:48:06;1.60;;;1.48;;
39654;SDS011;25336;59.944;11.010;2024-02-26T08:50:32;2.08;;;1.30;;
39654;SDS011;25336;59.944;11.010;2024-02-26T08:52:58;1.17;;;1.08;;
39654;SDS011;25336;59.944;11.010;2024-02-26T08:55:26;1.58;;;1.40;;
39654;SDS011;25336;59.944;11.010;2024-02-26T08:57:51;1.58;;;1.20;;
39654;SDS011;25336;59.944;11.010;2024-02-26T09:00:17;1.50;;;1.40;;
39654;SDS011;25336;59.944;11.010;2024-02-26T09:02:49;1.15;;;1.05;;
39654;SDS011;25336;59.944;11.010;2024-02-26T09:05:15;1.67;;;1.35;;
39654;SDS011;25336;59.944;11.010;2024-02-26T09:07:41;1.50;;;1.40;;
39654;SDS011;25336;59.944;11.010;2024-02-26T09:10:06;1.15;;;1.10;;
39654;SDS011;25336;59.944;11.010;2024-02-26T09:12:36;1.50;;;1.35;;
39654;SDS011;25336;59.944;11.010;2024-02-26T09:15:02;1.40;;;1.30;;
39654;SDS011;25336;59.944;11.010;2024-02-26T09:17:28;1.15;;;1.10;;
39654;SDS011;25336;59.944;11.010;2024-02-26T09:19:54;1.48;;;1.38;;
39654;SDS011;25336;59.944;11.010;2024-02-26T09:22:20;1.23;;;1.00;;
39654;SDS011;25336;59.944;11.010;2024-02-26T09:24:46;1.00;;;1.00;;
39654;SDS011;25336;59.944;11.010;2024-02-26T09:27:11;1.30;;;1.20;;
39654;SDS011;25336;59.944;11.010;2024-02-26T09:29:37;1.33;;;1.23;;
39654;SDS011;25336;59.944;11.010;2024-02-26T09:32:03;2.05;;;1.63;;
39654;SDS011;25336;59.944;11.010;2024-02-26T09:34:28;1.60;;;1.45;;
39654;SDS011;25336;59.944;11.010;2024-02-26T09:36:54;1.90;;;1.25;;
39654;SDS011;25336;59.944;11.010;2024-02-26T09:39:20;1.40;;;1.30;;
39654;SDS011;25336;59.944;11.010;2024-02-26T09:41:47;1.40;;;1.30;;
39654;SDS011;25336;59.944;11.010;2024-02-26T09:44:20;1.23;;;1.20;;
39654;SDS011;25336;59.944;11.010;2024-02-26T09:46:47;2.10;;;1.40;;
39654;SDS011;25336;59.944;11.010;2024-02-26T09:49:16;1.70;;;1.60;;
39654;SDS011;25336;59.944;11.010;2024-02-26T09:51:43;1.55;;;1.30;;
39654;SDS011;25336;59.944;11.010;2024-02-26T09:54:09;1.52;;;1.42;;
39654;SDS011;25336;59.944;11.010;2024-02-26T09:56:39;1.27;;;1.17;;
39654;SDS011;25336;59.944;11.010;2024-02-26T09:59:13;1.33;;;1.23;;
39654;SDS011;25336;59.944;11.010;2024-02-26T10:01:42;1.83;;;1.40;;
39654;SDS011;25336;59.944;11.010;2024-02-26T10:04:09;1.83;;;1.42;;
39654;SDS011;25336;59.944;11.010;2024-02-26T10:06:36;2.13;;;1.40;;
39654;SDS011;25336;59.944;11.010;2024-02-26T10:09:02;2.38;;;1.35;;
39654;SDS011;25336;59.944;11.010;2024-02-26T10:11:32;1.48;;;1.38;;
39654;SDS011;25336;59.944;11.010;2024-02-26T10:13:58;1.98;;;1.50;;
39654;SDS011;25336;59.944;11.010;2024-02-26T10:16:24;1.38;;;1.27;;
39654;SDS011;25336;59.944;11.010;2024-02-26T10:18:50;1.75;;;1.65;;
39654;SDS011;25336;59.944;11.010;2024-02-26T10:21:19;1.85;;;1.67;;
39654;SDS011;25336;59.944;11.010;2024-02-26T10:23:45;1.67;;;1.58;;
39654;SDS011;25336;59.944;11.010;2024-02-26T10:26:12;2.60;;;2.22;;
39654;SDS011;25336;59.944;11.010;2024-02-26T10:28:39;1.50;;;1.40;;
39654;SDS011;25336;59.944;11.010;2024-02-26T10:31:10;1.80;;;1.70;;
39654;SDS011;25336;59.944;11.010;2024-02-26T10:33:36;2.30;;;1.50;;
39654;SDS011;25336;59.944;11.010;2024-02-26T10:36:03;2.42;;;1.58;;
39654;SDS011;25336;59.944;11.010;2024-02-26T10:38:35;1.95;;;1.85;;
39654;SDS011;25336;59.944;11.010;2024-02-26T10:41:05;1.65;;;1.55;;
39654;SDS011;25336;59.944;11.010;2024-02-26T10:43:31;2.20;;;2.00;;
39654;SDS011;25336;59.944;11.010;2024-02-26T10:45:57;2.55;;;2.25;;
39654;SDS011;25336;59.944;11.010;2024-02-26T10:48:23;2.63;;;2.47;;
39654;SDS011;25336;59.944;11.010;2024-02-26T10:50:49;1.83;;;1.73;;
39654;SDS011;25336;59.944;11.010;2024-02-26T10:53:25;1.70;;;1.60;;
39654;SDS011;25336;59.944;11.010;2024-02-26T10:55:57;2.00;;;1.90;;
39654;SDS011;25336;59.944;11.010;2024-02-26T10:58:25;1.80;;;1.70;;
39654;SDS011;25336;59.944;11.010;2024-02-26T11:00:52;2.03;;;1.70;;
39654;SDS011;25336;59.944;11.010;2024-02-26T11:03:18;1.95;;;1.77;;
39654;SDS011;25336;59.944;11.010;2024-02-26T11:05:49;2.45;;;2.22;;
39654;SDS011;25336;59.944;11.010;2024-02-26T11:08:18;1.90;;;1.80;;
39654;SDS011;25336;59.944;11.010;2024-02-26T11:10:50;1.88;;;1.77;;
39654;SDS011;25336;59.944;11.010;2024-02-26T11:13:18;1.40;;;1.30;;
39654;SDS011;25336;59.944;11.010;2024-02-26T11:15:47;1.55;;;1.45;;
39654;SDS011;25336;59.944;11.010;2024-02-26T11:18:15;1.50;;;1.40;;
39654;SDS011;25336;59.944;11.010;2024-02-26T11:20:44;2.58;;;1.40;;
39654;SDS011;25336;59.944;11.010;2024-02-26T11:23:10;1.50;;;1.40;;
39654;SDS011;25336;59.944;11.010;2024-02-26T11:25:37;1.50;;;1.40;;
39654;SDS011;25336;59.944;11.010;2024-02-26T11:28:05;1.70;;;1.60;;
39654;SDS011;25336;59.944;11.010;2024-02-26T11:30:38;2.80;;;1.90;;
39654;SDS011;25336;59.944;11.010;2024-02-26T11:33:07;1.65;;;1.45;;
39654;SDS011;25336;59.944;11.010;2024-02-26T11:35:35;1.85;;;1.20;;
39654;SDS011;25336;59.944;11.010;2024-02-26T11:38:01;1.60;;;1.50;;
39654;SDS011;25336;59.944;11.010;2024-02-26T11:40:27;1.50;;;1.40;;
39654;SDS011;25336;59.944;11.010;2024-02-26T11:42:53;1.70;;;1.40;;
39654;SDS011;25336;59.944;11.010;2024-02-26T11:48:03;1.60;;;1.27;;
39654;SDS011;25336;59.944;11.010;2024-02-26T11:50:41;1.15;;;1.15;;
39654;SDS011;25336;59.944;11.010;2024-02-26T11:58:44;1.02;;;1.02;;
39654;SDS011;25336;59.944;11.010;2024-02-26T12:04:05;1.17;;;1.08;;
39654;SDS011;25336;59.944;11.010;2024-02-26T12:06:53;1.27;;;1.20;;
39654;SDS011;25336;59.944;11.010;2024-02-26T12:12:17;1.50;;;1.40;;
39654;SDS011;25336;59.944;11.010;2024-02-26T12:14:50;1.90;;;1.80;;
39654;SDS011;25336;59.944;11.010;2024-02-26T12:17:24;2.03;;;1.70;;
39654;SDS011;25336;59.944;11.010;2024-02-26T12:19:51;1.42;;;1.23;;
39654;SDS011;25336;59.944;11.010;2024-02-26T12:22:19;2.55;;;1.45;;
39654;SDS011;25336;59.944;11.010;2024-02-26T12:24:45;3.33;;;1.80;;
39654;SDS011;25336;59.944;11.010;2024-02-26T12:27:10;1.95;;;1.55;;
39654;SDS011;25336;59.944;11.010;2024-02-26T12:29:36;1.80;;;1.58;;
39654;SDS011;25336;59.944;11.010;2024-02-26T12:32:05;1.65;;;1.55;;
39654;SDS011;25336;59.944;11.010;2024-02-26T12:34:31;1.30;;;1.20;;
39654;SDS011;25336;59.944;11.010;2024-02-26T12:36:57;1.65;;;1.33;;
39654;SDS011;25336;59.944;11.010;2024-02-26T12:39:23;1.30;;;1.20;;
39654;SDS011;25336;59.944;11.010;2024-02-26T12:41:49;1.40;;;1.30;;
39654;SDS011;25336;59.944;11.010;2024-02-26T12:44:18;1.10;;;1.10;;
39654;SDS011;25336;59.944;11.010;2024-02-26T12:46:50;1.52;;;1.42;;
39654;SDS011;25336;59.944;11.010;2024-02-26T12:49:16;1.85;;;1.35;;
39654;SDS011;25336;59.944;11.010;2024-02-26T12:51:43;1.25;;;1.23;;
39654;SDS011;25336;59.944;11.010;2024-02-26T12:54:10;1.77;;;1.63;;
39654;SDS011;25336;59.944;11.010;2024-02-26T12:56:38;3.00;;;1.73;;
39654;SDS011;25336;59.944;11.010;2024-02-26T12:59:04;1.40;;;1.25;;
39654;SDS011;25336;59.944;11.010;2024-02-26T13:01:30;2.42;;;1.80;;
39654;SDS011;25336;59.944;11.010;2024-02-26T13:03:56;2.85;;;2.13;;
39654;SDS011;25336;59.944;11.010;2024-02-26T13:06:23;2.67;;;2.03;;
39654;SDS011;25336;59.944;11.010;2024-02-26T13:08:49;2.28;;;1.90;;
39654;SDS011;25336;59.944;11.010;2024-02-26T13:11:15;2.05;;;1.77;;
39654;SDS011;25336;59.944;11.010;2024-02-26T13:13:41;1.83;;;1.73;;
39654;SDS011;25336;59.944;11.010;2024-02-26T13:16:08;1.70;;;1.58;;
39654;SDS011;25336;59.944;11.010;2024-02-26T13:18:35;2.10;;;1.77;;
39654;SDS011;25336;59.944;11.010;2024-02-26T13:21:10;1.45;;;1.35;;
39654;SDS011;25336;59.944;11.010;2024-02-26T13:23:40;1.60;;;1.50;;
39654;SDS011;25336;59.944;11.010;2024-02-26T13:26:07;2.63;;;1.60;;
39654;SDS011;25336;59.944;11.010;2024-02-26T13:28:36;1.70;;;1.60;;
39654;SDS011;25336;59.944;11.010;2024-02-26T13:31:02;2.75;;;1.75;;
39654;SDS011;25336;59.944;11.010;2024-02-26T13:33:30;3.30;;;1.50;;
39654;SDS011;25336;59.944;11.010;2024-02-26T13:35:57;1.50;;;1.40;;
39654;SDS011;25336;59.944;11.010;2024-02-26T13:38:24;1.40;;;1.30;;
39654;SDS011;25336;59.944;11.010;2024-02-26T13:40:50;1.27;;;1.17;;
39654;SDS011;25336;59.944;11.010;2024-02-26T13:43:16;2.50;;;1.20;;
39654;SDS011;25336;59.944;11.010;2024-02-26T13:45:43;2.83;;;1.70;;
39654;SDS011;25336;59.944;11.010;2024-02-26T13:48:09;4.05;;;1.88;;
39654;SDS011;25336;59.944;11.010;2024-02-26T13:50:36;1.60;;;1.50;;
39654;SDS011;25336;59.944;11.010;2024-02-26T13:53:03;1.58;;;1.48;;
39654;SDS011;25336;59.944;11.010;2024-02-26T13:55:29;4.07;;;2.28;;
39654;SDS011;25336;59.944;11.010;2024-02-26T13:57:57;1.83;;;1.63;;
39654;SDS011;25336;59.944;11.010;2024-02-26T14:00:23;1.45;;;1.35;;
39654;SDS011;25336;59.944;11.010;2024-02-26T14:02:50;1.60;;;1.50;;
39654;SDS011;25336;59.944;11.010;2024-02-26T14:05:16;1.63;;;1.52;;
39654;SDS011;25336;59.944;11.010;2024-02-26T14:07:41;1.92;;;1.73;;
39654;SDS011;25336;59.944;11.010;2024-02-26T14:10:09;1.58;;;1.48;;
39654;SDS011;25336;59.944;11.010;2024-02-26T14:12:37;1.63;;;1.52;;
39654;SDS011;25336;59.944;11.010;2024-02-26T14:15:04;1.30;;;1.20;;
39654;SDS011;25336;59.944;11.010;2024-02-26T14:17:34;1.45;;;1.35;;
39654;SDS011;25336;59.944;11.010;2024-02-26T14:20:00;1.98;;;1.50;;
39654;SDS011;25336;59.944;11.010;2024-02-26T14:22:26;2.38;;;1.67;;
39654;SDS011;25336;59.944;11.010;2024-02-26T14:24:52;2.88;;;1.75;;
39654;SDS011;25336;59.944;11.010;2024-02-26T14:27:18;1.60;;;1.50;;
39654;SDS011;25336;59.944;11.010;2024-02-26T14:29:47;2.17;;;1.98;;
39654;SDS011;25336;59.944;11.010;2024-02-26T14:32:13;1.75;;;1.65;;
39654;SDS011;25336;59.944;11.010;2024-02-26T14:34:39;1.55;;;1.45;;
39654;SDS011;25336;59.944;11.010;2024-02-26T14:37:05;1.83;;;1.73;;